CST,Max TemperatureF,Mean TemperatureF,Min TemperatureF,Max Dew PointF,MeanDew PointF,Min DewpointF,Max Humidity, Mean Humidity, Min Humidity, Max Sea Level PressureIn, Mean Sea Level PressureIn, Min Sea Level PressureIn, Max VisibilityMiles, Mean VisibilityMiles, Min VisibilityMiles, Max Wind SpeedMPH, Mean Wind SpeedMPH, Max Gust SpeedMPH,PrecipitationIn, CloudCover, Events, WindDirDegrees
2011-11-1,62,50,38,39,35,31,76,58,39,30.06,29.91,29.80,10,10,10,26,15,32,0.00,0,,347
2011-11-2,45,38,30,35,31,22,92,73,53,30.39,30.25,30.06,10,10,6,31,18,39,0.14,7,Rain,357
2011-11-3,50,36,22,24,20,15,88,57,26,30.44,30.35,30.25,10,10,10,12,7,15,0.00,0,,241
2011-11-4,53,41,28,27,24,19,75,56,36,30.26,30.10,29.92,10,10,10,25,15,35,0.00,0,,165
2011-11-5,60,50,40,38,30,25,61,47,33,29.89,29.66,29.46,10,10,10,35,24,46,0.00,0,,167
2011-11-6,57,44,31,37,26,19,82,53,23,30.09,29.85,29.45,10,10,10,32,11,41,0.00,1,,236
2011-11-7,49,37,24,37,28,20,92,66,39,30.22,30.16,30.11,10,10,9,16,8,22,0.05,4,Rain,56
2011-11-8,46,38,29,37,32,21,92,71,49,30.21,30.12,30.07,10,9,5,24,12,31,0.01,6,Rain,19
2011-11-9,49,37,24,23,18,12,75,50,24,30.38,30.32,30.22,10,10,10,30,14,36,0.00,0,,303
2011-11-10,52,36,20,26,19,13,77,52,26,30.38,30.22,29.93,10,10,10,15,8,22,0.00,0,,224
2011-11-11,68,49,30,25,20,14,78,46,13,29.90,29.79,29.66,10,10,10,15,10,20,0.00,0,,246
2011-11-12,63,45,26,33,28,21,75,51,27,29.65,29.48,29.29,10,10,9,18,9,24,0.00,0,,193
2011-11-13,57,49,40,37,26,12,62,42,21,29.59,29.48,29.31,10,10,10,33,14,45,0.00,2,,269
2011-11-14,60,49,38,28,24,18,54,38,21,29.73,29.63,29.55,10,10,10,28,15,41,0.00,1,,239
2011-11-15,53,40,26,28,19,10,64,45,25,30.13,29.87,29.61,10,10,10,26,13,40,0.00,0,,321
2011-11-16,43,30,16,28,17,6,91,59,27,30.40,30.29,30.14,10,9,0,29,9,36,0.01,5,Fog-Snow,305
2011-11-17,52,34,16,24,19,12,84,57,29,30.36,30.11,29.80,10,10,10,28,16,41,0.00,0,,212
2011-11-18,56,44,31,28,25,23,78,55,32,29.79,29.68,29.60,10,10,10,28,10,35,0.00,0,,182
2011-11-19,34,28,21,27,21,16,85,75,64,30.27,29.87,29.53,10,9,2,26,16,33,T,7,Snow,360
2011-11-20,34,24,13,19,14,9,88,70,51,30.39,30.30,30.21,10,10,10,14,6,17,0.00,0,,40
2011-11-21,42,28,13,27,20,9,92,70,48,30.30,30.20,30.11,10,10,9,12,4,17,0.00,1,,168
2011-11-22,57,39,20,29,24,18,96,65,33,30.14,30.08,30.01,10,8,0,9,4,14,0.00,0,Fog,213
2011-11-23,66,47,27,28,25,20,75,48,20,30.18,30.11,30.03,10,10,10,15,9,20,0.00,0,,228
2011-11-24,66,50,34,41,32,27,89,58,26,30.01,29.88,29.77,10,10,10,24,12,35,0.00,0,,195
2011-11-25,53,47,40,45,41,33,93,72,50,29.76,29.69,29.64,10,9,4,18,10,24,0.00,4,,202
2011-11-26,47,38,28,30,16,1,70,47,23,30.39,30.16,29.80,10,10,10,41,27,52,0.00,0,,338
2011-11-27,48,33,17,9,2,-7,67,39,10,30.41,30.33,30.22,10,10,10,17,9,22,0.00,0,,301
2011-11-28,58,40,21,29,17,7,62,42,21,30.29,30.14,30.03,10,10,10,22,10,26,0.00,0,,233
2011-11-29,47,34,21,28,19,10,85,55,25,30.44,30.34,30.19,10,10,10,17,8,21,0.00,1,,293
2011-11-30,55,42,28,27,23,17,69,52,35,30.15,29.96,29.80,10,10,10,21,10,25,0.00,0,,191